sensor_id;sensor_type;location;lat;lon;timestamp;temperature;humidity
35680;DHT22;21803;53.586;10.040;2023-08-01T04:01:52;25.40;51.00
35680;DHT22;21803;53.586;10.040;2023-08-01T04:04:18;25.40;51.00
35680;DHT22;21803;53.586;10.040;2023-08-01T04:06:45;25.50;51.00
35680;DHT22;21803;53.586;10.040;2023-08-01T04:09:10;25.40;51.00
35680;DHT22;21803;53.586;10.040;2023-08-01T04:11:36;25.40;51.00
35680;DHT22;21803;53.586;10.040;2023-08-01T04:14:01;25.40;51.00
35680;DHT22;21803;53.586;10.040;2023-08-01T04:16:27;25.40;50.90
35680;DHT22;21803;53.586;10.040;2023-08-01T04:18:53;25.40;50.90
35680;DHT22;21803;53.586;10.040;2023-08-01T04:21:18;25.30;50.90
35680;DHT22;21803;53.586;10.040;2023-08-01T04:23:44;25.40;51.00
35680;DHT22;21803;53.586;10.040;2023-08-01T04:26:09;25.40;50.90
35680;DHT22;21803;53.586;10.040;2023-08-01T04:28:35;25.40;50.90
35680;DHT22;21803;53.586;10.040;2023-08-01T04:31:00;25.40;51.00
35680;DHT22;21803;53.586;10.040;2023-08-01T04:33:26;25.40;50.90
35680;DHT22;21803;53.586;10.040;2023-08-01T04:35:51;25.50;51.00
35680;DHT22;21803;53.586;10.040;2023-08-01T04:38:17;25.50;51.00
35680;DHT22;21803;53.586;10.040;2023-08-01T04:40:43;25.40;50.90
35680;DHT22;21803;53.586;10.040;2023-08-01T04:43:09;25.40;50.90
35680;DHT22;21803;53.586;10.040;2023-08-01T04:45:35;25.40;50.90
35680;DHT22;21803;53.586;10.040;2023-08-01T04:48:01;25.40;50.90
35680;DHT22;21803;53.586;10.040;2023-08-01T04:50:26;26.60;51.60
35680;DHT22;21803;53.586;10.040;2023-08-01T04:52:52;25.40;50.90
35680;DHT22;21803;53.586;10.040;2023-08-01T04:55:17;25.40;51.00
35680;DHT22;21803;53.586;10.040;2023-08-01T04:57:43;25.40;50.90
35680;DHT22;21803;53.586;10.040;2023-08-01T05:00:09;25.50;51.00
35680;DHT22;21803;53.586;10.040;2023-08-01T05:02:35;25.40;50.90
35680;DHT22;21803;53.586;10.040;2023-08-01T05:05:00;25.50;51.00
35680;DHT22;21803;53.586;10.040;2023-08-01T05:07:26;25.40;50.90
35680;DHT22;21803;53.586;10.040;2023-08-01T05:09:51;25.40;50.90
35680;DHT22;21803;53.586;10.040;2023-08-01T05:12:17;25.40;50.90
35680;DHT22;21803;53.586;10.040;2023-08-01T05:14:42;25.40;50.90
35680;DHT22;21803;53.586;10.040;2023-08-01T05:17:08;25.50;50.90
35680;DHT22;21803;53.586;10.040;2023-08-01T05:19:33;25.40;50.90
35680;DHT22;21803;53.586;10.040;2023-08-01T05:21:59;25.40;50.90
35680;DHT22;21803;53.586;10.040;2023-08-01T05:24:24;25.40;50.90
35680;DHT22;21803;53.586;10.040;2023-08-01T05:26:50;27.10;52.00
35680;DHT22;21803;53.586;10.040;2023-08-01T05:29:15;25.40;50.90
35680;DHT22;21803;53.586;10.040;2023-08-01T05:31:41;25.50;51.00
35680;DHT22;21803;53.586;10.040;2023-08-01T05:34:06;25.40;50.90
35680;DHT22;21803;53.586;10.040;2023-08-01T05:36:32;25.40;50.90
35680;DHT22;21803;53.586;10.040;2023-08-01T05:38:57;25.40;50.90
35680;DHT22;21803;53.586;10.040;2023-08-01T05:41:23;25.40;50.90
35680;DHT22;21803;53.586;10.040;2023-08-01T05:43:49;25.30;50.90
35680;DHT22;21803;53.586;10.040;2023-08-01T05:46:15;25.40;50.90
35680;DHT22;21803;53.586;10.040;2023-08-01T05:48:41;25.40;50.90
35680;DHT22;21803;53.586;10.040;2023-08-01T05:51:06;25.50;50.90
35680;DHT22;21803;53.586;10.040;2023-08-01T05:53:32;25.50;50.90
35680;DHT22;21803;53.586;10.040;2023-08-01T05:55:57;23.70;50.00
35680;DHT22;21803;53.586;10.040;2023-08-01T05:58:23;25.40;50.90
35680;DHT22;21803;53.586;10.040;2023-08-01T06:00:49;25.50;50.90
35680;DHT22;21803;53.586;10.040;2023-08-01T06:03:14;25.50;50.90
35680;DHT22;21803;53.586;10.040;2023-08-01T06:05:40;25.40;50.90
35680;DHT22;21803;53.586;10.040;2023-08-01T06:08:06;25.40;50.80
35680;DHT22;21803;53.586;10.040;2023-08-01T06:10:33;25.40;50.90
35680;DHT22;21803;53.586;10.040;2023-08-01T06:12:58;25.40;50.90
35680;DHT22;21803;53.586;10.040;2023-08-01T06:15:24;25.40;50.90
35680;DHT22;21803;53.586;10.040;2023-08-01T06:17:49;25.30;50.80
35680;DHT22;21803;53.586;10.040;2023-08-01T06:20:15;25.40;50.80
35680;DHT22;21803;53.586;10.040;2023-08-01T06:22:42;25.40;50.80
35680;DHT22;21803;53.586;10.040;2023-08-01T06:25:08;25.40;50.80
35680;DHT22;21803;53.586;10.040;2023-08-01T06:27:34;25.40;50.90
35680;DHT22;21803;53.586;10.040;2023-08-01T06:29:59;25.50;50.90
35680;DHT22;21803;53.586;10.040;2023-08-01T06:32:25;25.50;50.90
35680;DHT22;21803;53.586;10.040;2023-08-01T06:34:51;25.50;50.90
35680;DHT22;21803;53.586;10.040;2023-08-01T06:37:16;25.40;50.90
35680;DHT22;21803;53.586;10.040;2023-08-01T06:39:42;25.50;50.90
35680;DHT22;21803;53.586;10.040;2023-08-01T06:42:07;25.40;50.80
35680;DHT22;21803;53.586;10.040;2023-08-01T06:44:33;25.40;50.80
35680;DHT22;21803;53.586;10.040;2023-08-01T06:46:58;25.30;50.70
35680;DHT22;21803;53.586;10.040;2023-08-01T06:49:24;25.40;50.80
35680;DHT22;21803;53.586;10.040;2023-08-01T06:51:49;25.50;50.80
35680;DHT22;21803;53.586;10.040;2023-08-01T06:54:15;25.50;50.80
35680;DHT22;21803;53.586;10.040;2023-08-01T06:56:40;25.50;50.80
35680;DHT22;21803;53.586;10.040;2023-08-01T06:59:13;25.50;50.80
35680;DHT22;21803;53.586;10.040;2023-08-01T07:01:38;25.50;50.80
35680;DHT22;21803;53.586;10.040;2023-08-01T07:04:06;25.40;50.80
35680;DHT22;21803;53.586;10.040;2023-08-01T07:06:31;25.50;50.80
35680;DHT22;21803;53.586;10.040;2023-08-01T07:08:57;25.50;50.80
35680;DHT22;21803;53.586;10.040;2023-08-01T07:11:23;25.40;50.80
35680;DHT22;21803;53.586;10.040;2023-08-01T07:13:48;25.40;50.70
35680;DHT22;21803;53.586;10.040;2023-08-01T07:16:14;25.50;50.80
35680;DHT22;21803;53.586;10.040;2023-08-01T07:18:40;25.50;50.80
35680;DHT22;21803;53.586;10.040;2023-08-01T07:21:05;25.50;50.80
35680;DHT22;21803;53.586;10.040;2023-08-01T07:23:33;25.50;50.80
35680;DHT22;21803;53.586;10.040;2023-08-01T07:25:58;25.60;50.80
35680;DHT22;21803;53.586;10.040;2023-08-01T07:28:24;25.40;50.70
35680;DHT22;21803;53.586;10.040;2023-08-01T07:31:01;25.50;50.70
35680;DHT22;21803;53.586;10.040;2023-08-01T07:33:27;25.50;50.70
35680;DHT22;21803;53.586;10.040;2023-08-01T07:35:52;25.50;50.70
35680;DHT22;21803;53.586;10.040;2023-08-01T07:38:18;25.50;50.70
35680;DHT22;21803;53.586;10.040;2023-08-01T07:40:43;25.60;50.70
35680;DHT22;21803;53.586;10.040;2023-08-01T07:43:09;25.50;50.60
35680;DHT22;21803;53.586;10.040;2023-08-01T07:45:34;25.50;50.60
35680;DHT22;21803;53.586;10.040;2023-08-01T07:48:00;25.50;50.60
35680;DHT22;21803;53.586;10.040;2023-08-01T07:50:26;25.30;50.50
35680;DHT22;21803;53.586;10.040;2023-08-01T07:52:52;25.50;50.60
35680;DHT22;21803;53.586;10.040;2023-08-01T07:55:17;25.50;50.50
35680;DHT22;21803;53.586;10.040;2023-08-01T07:57:44;25.50;50.50
35680;DHT22;21803;53.586;10.040;2023-08-01T08:00:10;25.50;50.50
35680;DHT22;21803;53.586;10.040;2023-08-01T08:02:36;25.50;50.50
35680;DHT22;21803;53.586;10.040;2023-08-01T08:05:01;25.50;50.50
35680;DHT22;21803;53.586;10.040;2023-08-01T08:07:27;25.50;50.50
35680;DHT22;21803;53.586;10.040;2023-08-01T08:09:52;25.50;50.50
35680;DHT22;21803;53.586;10.040;2023-08-01T08:12:21;25.60;50.50
35680;DHT22;21803;53.586;10.040;2023-08-01T08:14:46;25.50;50.50
35680;DHT22;21803;53.586;10.040;2023-08-01T08:17:12;25.60;50.50
35680;DHT22;21803;53.586;10.040;2023-08-01T08:19:38;25.60;50.50
35680;DHT22;21803;53.586;10.040;2023-08-01T08:22:03;25.60;50.50
35680;DHT22;21803;53.586;10.040;2023-08-01T08:24:29;25.60;50.50
35680;DHT22;21803;53.586;10.040;2023-08-01T08:26:55;25.60;50.50
35680;DHT22;21803;53.586;10.040;2023-08-01T08:29:20;25.60;50.50
35680;DHT22;21803;53.586;10.040;2023-08-01T08:31:47;25.60;50.50
35680;DHT22;21803;53.586;10.040;2023-08-01T08:34:12;25.60;50.40
35680;DHT22;21803;53.586;10.040;2023-08-01T08:36:38;25.60;50.40
35680;DHT22;21803;53.586;10.040;2023-08-01T08:39:03;25.60;50.40
35680;DHT22;21803;53.586;10.040;2023-08-01T08:41:33;25.60;50.40
35680;DHT22;21803;53.586;10.040;2023-08-01T08:44:01;25.50;50.40
35680;DHT22;21803;53.586;10.040;2023-08-01T08:46:29;25.50;50.40
35680;DHT22;21803;53.586;10.040;2023-08-01T08:49:00;25.50;50.40
35680;DHT22;21803;53.586;10.040;2023-08-01T08:51:29;25.40;50.30
35680;DHT22;21803;53.586;10.040;2023-08-01T08:53:56;25.60;50.50
35680;DHT22;21803;53.586;10.040;2023-08-01T08:56:23;25.50;50.50
35680;DHT22;21803;53.586;10.040;2023-08-01T08:58:48;25.60;50.60
35680;DHT22;21803;53.586;10.040;2023-08-01T09:01:14;25.60;50.60
35680;DHT22;21803;53.586;10.040;2023-08-01T09:03:40;25.60;50.60
35680;DHT22;21803;53.586;10.040;2023-08-01T09:06:17;25.60;50.60
35680;DHT22;21803;53.586;10.040;2023-08-01T09:09:13;25.50;51.20
35680;DHT22;21803;53.586;10.040;2023-08-01T09:11:51;25.60;50.60
35680;DHT22;21803;53.586;10.040;2023-08-01T09:14:18;25.60;50.60
35680;DHT22;21803;53.586;10.040;2023-08-01T09:16:44;25.50;50.60
35680;DHT22;21803;53.586;10.040;2023-08-01T09:19:10;25.60;50.60
35680;DHT22;21803;53.586;10.040;2023-08-01T09:21:39;25.60;50.70
35680;DHT22;21803;53.586;10.040;2023-08-01T09:26:34;25.70;50.70
35680;DHT22;21803;53.586;10.040;2023-08-01T09:29:00;25.50;50.60
35680;DHT22;21803;53.586;10.040;2023-08-01T09:31:33;25.50;50.60
35680;DHT22;21803;53.586;10.040;2023-08-01T09:34:01;25.60;50.70
35680;DHT22;21803;53.586;10.040;2023-08-01T09:36:26;23.10;49.40
35680;DHT22;21803;53.586;10.040;2023-08-01T09:38:58;25.50;50.70
35680;DHT22;21803;53.586;10.040;2023-08-01T09:41:24;25.50;50.70
35680;DHT22;21803;53.586;10.040;2023-08-01T09:43:50;25.50;50.70
35680;DHT22;21803;53.586;10.040;2023-08-01T09:46:15;25.60;50.70
35680;DHT22;21803;53.586;10.040;2023-08-01T09:48:42;25.60;50.80
35680;DHT22;21803;53.586;10.040;2023-08-01T09:51:12;25.40;50.60
35680;DHT22;21803;53.586;10.040;2023-08-01T09:53:50;25.60;50.80
35680;DHT22;21803;53.586;10.040;2023-08-01T09:56:19;25.60;50.70
35680;DHT22;21803;53.586;10.040;2023-08-01T09:58:46;25.60;50.80
35680;DHT22;21803;53.586;10.040;2023-08-01T10:01:14;25.60;50.80
35680;DHT22;21803;53.586;10.040;2023-08-01T10:03:45;25.60;50.70
35680;DHT22;21803;53.586;10.040;2023-08-01T10:06:22;25.60;50.80
35680;DHT22;21803;53.586;10.040;2023-08-01T10:08:48;25.60;50.80
35680;DHT22;21803;53.586;10.040;2023-08-01T10:11:16;25.50;50.80
35680;DHT22;21803;53.586;10.040;2023-08-01T10:13:42;25.60;50.90
35680;DHT22;21803;53.586;10.040;2023-08-01T10:16:09;25.50;50.90
35680;DHT22;21803;53.586;10.040;2023-08-01T10:18:34;25.60;51.60
35680;DHT22;21803;53.586;10.040;2023-08-01T10:21:03;25.60;51.00
35680;DHT22;21803;53.586;10.040;2023-08-01T10:23:30;25.60;51.10
35680;DHT22;21803;53.586;10.040;2023-08-01T10:25:56;25.60;51.10
35680;DHT22;21803;53.586;10.040;2023-08-01T10:28:31;25.60;51.20
35680;DHT22;21803;53.586;10.040;2023-08-01T10:31:16;25.60;51.20
35680;DHT22;21803;53.586;10.040;2023-08-01T10:33:45;25.60;51.30
35680;DHT22;21803;53.586;10.040;2023-08-01T10:36:20;25.60;51.20
35680;DHT22;21803;53.586;10.040;2023-08-01T10:41:35;25.60;51.20
35680;DHT22;21803;53.586;10.040;2023-08-01T10:47:05;25.70;51.30
35680;DHT22;21803;53.586;10.040;2023-08-01T10:51:59;25.60;51.20
35680;DHT22;21803;53.586;10.040;2023-08-01T10:54:25;25.60;51.20
35680;DHT22;21803;53.586;10.040;2023-08-01T10:56:53;25.60;51.20
35680;DHT22;21803;53.586;10.040;2023-08-01T10:59:20;25.60;51.20
35680;DHT22;21803;53.586;10.040;2023-08-01T11:01:48;25.60;51.20
35680;DHT22;21803;53.586;10.040;2023-08-01T11:04:18;25.60;51.20
35680;DHT22;21803;53.586;10.040;2023-08-01T11:06:48;25.60;51.20
35680;DHT22;21803;53.586;10.040;2023-08-01T11:09:21;25.60;51.30
35680;DHT22;21803;53.586;10.040;2023-08-01T11:11:53;25.60;51.30
35680;DHT22;21803;53.586;10.040;2023-08-01T11:14:20;25.60;51.30
35680;DHT22;21803;53.586;10.040;2023-08-01T11:16:48;25.60;51.30
35680;DHT22;21803;53.586;10.040;2023-08-01T11:19:31;25.60;51.40
35680;DHT22;21803;53.586;10.040;2023-08-01T11:21:57;27.40;52.50
35680;DHT22;21803;53.586;10.040;2023-08-01T11:24:24;25.60;51.40
35680;DHT22;21803;53.586;10.040;2023-08-01T11:26:52;25.60;51.40
35680;DHT22;21803;53.586;10.040;2023-08-01T11:29:19;25.60;51.40
35680;DHT22;21803;53.586;10.040;2023-08-01T11:31:59;25.60;51.40
35680;DHT22;21803;53.586;10.040;2023-08-01T11:34:25;25.60;51.40
35680;DHT22;21803;53.586;10.040;2023-08-01T11:36:51;25.60;51.40
35680;DHT22;21803;53.586;10.040;2023-08-01T11:39:17;25.50;51.30
35680;DHT22;21803;53.586;10.040;2023-08-01T11:41:43;25.40;51.30
35680;DHT22;21803;53.586;10.040;2023-08-01T11:44:09;25.60;51.40
35680;DHT22;21803;53.586;10.040;2023-08-01T11:46:37;25.60;51.50
35680;DHT22;21803;53.586;10.040;2023-08-01T11:49:03;25.60;51.60
35680;DHT22;21803;53.586;10.040;2023-08-01T11:51:29;25.50;52.10
35680;DHT22;21803;53.586;10.040;2023-08-01T11:54:02;25.60;51.60
35680;DHT22;21803;53.586;10.040;2023-08-01T11:56:28;25.50;51.50
35680;DHT22;21803;53.586;10.040;2023-08-01T11:58:54;25.60;51.60
35680;DHT22;21803;53.586;10.040;2023-08-01T12:01:19;25.60;51.60
35680;DHT22;21803;53.586;10.040;2023-08-01T12:03:53;25.60;51.60
35680;DHT22;21803;53.586;10.040;2023-08-01T12:06:20;25.40;51.50
35680;DHT22;21803;53.586;10.040;2023-08-01T12:08:48;25.60;51.60
35680;DHT22;21803;53.586;10.040;2023-08-01T12:13:47;25.60;51.60
35680;DHT22;21803;53.586;10.040;2023-08-01T12:16:13;25.60;51.60
35680;DHT22;21803;53.586;10.040;2023-08-01T12:18:42;25.60;51.60
35680;DHT22;21803;53.586;10.040;2023-08-01T12:21:10;25.70;51.60
35680;DHT22;21803;53.586;10.040;2023-08-01T12:23:36;25.60;51.50
35680;DHT22;21803;53.586;10.040;2023-08-01T12:26:02;25.60;51.50
35680;DHT22;21803;53.586;10.040;2023-08-01T12:28:27;25.60;51.40
35680;DHT22;21803;53.586;10.040;2023-08-01T12:30:53;25.60;51.40
35680;DHT22;21803;53.586;10.040;2023-08-01T12:33:18;25.60;51.40
35680;DHT22;21803;53.586;10.040;2023-08-01T12:35:44;25.70;51.50
35680;DHT22;21803;53.586;10.040;2023-08-01T12:38:09;25.60;51.40
35680;DHT22;21803;53.586;10.040;2023-08-01T12:40:35;25.60;51.40
35680;DHT22;21803;53.586;10.040;2023-08-01T12:43:00;25.60;51.40
35680;DHT22;21803;53.586;10.040;2023-08-01T12:45:26;25.60;51.40
35680;DHT22;21803;53.586;10.040;2023-08-01T12:47:51;25.60;51.40
35680;DHT22;21803;53.586;10.040;2023-08-01T12:50:17;25.60;51.30
35680;DHT22;21803;53.586;10.040;2023-08-01T12:52:42;25.60;51.30
35680;DHT22;21803;53.586;10.040;2023-08-01T12:55:08;25.60;51.30
35680;DHT22;21803;53.586;10.040;2023-08-01T12:57:34;25.60;51.20
35680;DHT22;21803;53.586;10.040;2023-08-01T12:59:59;25.60;51.30
35680;DHT22;21803;53.586;10.040;2023-08-01T13:02:26;25.60;51.30
35680;DHT22;21803;53.586;10.040;2023-08-01T13:04:52;25.60;51.30
35680;DHT22;21803;53.586;10.040;2023-08-01T13:07:17;25.60;51.30
35680;DHT22;21803;53.586;10.040;2023-08-01T13:09:43;25.60;51.30
35680;DHT22;21803;53.586;10.040;2023-08-01T13:12:08;25.60;51.20
35680;DHT22;21803;53.586;10.040;2023-08-01T13:14:34;25.60;51.30
35680;DHT22;21803;53.586;10.040;2023-08-01T13:16:59;25.60;51.20
35680;DHT22;21803;53.586;10.040;2023-08-01T13:19:25;25.60;51.20
35680;DHT22;21803;53.586;10.040;2023-08-01T13:21:51;25.60;51.20
35680;DHT22;21803;53.586;10.040;2023-08-01T13:24:17;25.60;51.20
35680;DHT22;21803;53.586;10.040;2023-08-01T13:26:42;25.60;51.20
35680;DHT22;21803;53.586;10.040;2023-08-01T13:29:08;25.60;51.20
35680;DHT22;21803;53.586;10.040;2023-08-01T13:31:33;25.60;51.20
35680;DHT22;21803;53.586;10.040;2023-08-01T13:33:58;25.60;51.20
35680;DHT22;21803;53.586;10.040;2023-08-01T13:36:24;25.60;51.20
35680;DHT22;21803;53.586;10.040;2023-08-01T13:38:50;25.60;51.20
35680;DHT22;21803;53.586;10.040;2023-08-01T13:41:16;25.60;51.20
35680;DHT22;21803;53.586;10.040;2023-08-01T13:43:41;25.60;51.20
35680;DHT22;21803;53.586;10.040;2023-08-01T13:46:16;25.60;51.20
35680;DHT22;21803;53.586;10.040;2023-08-01T13:48:43;25.60;51.10
35680;DHT22;21803;53.586;10.040;2023-08-01T13:51:09;25.60;51.20
35680;DHT22;21803;53.586;10.040;2023-08-01T13:53:35;25.60;51.20
35680;DHT22;21803;53.586;10.040;2023-08-01T13:56:04;25.60;51.20
35680;DHT22;21803;53.586;10.040;2023-08-01T13:58:29;25.60;51.20
35680;DHT22;21803;53.586;10.040;2023-08-01T14:00:55;25.50;51.10
35680;DHT22;21803;53.586;10.040;2023-08-01T14:03:21;25.60;51.10
35680;DHT22;21803;53.586;10.040;2023-08-01T14:05:46;25.60;51.10
35680;DHT22;21803;53.586;10.040;2023-08-01T14:08:12;25.70;51.20
35680;DHT22;21803;53.586;10.040;2023-08-01T14:10:37;25.60;51.10
35680;DHT22;21803;53.586;10.040;2023-08-01T14:13:03;25.60;51.10
35680;DHT22;21803;53.586;10.040;2023-08-01T14:15:28;25.60;51.20
35680;DHT22;21803;53.586;10.040;2023-08-01T14:17:54;25.60;51.20
35680;DHT22;21803;53.586;10.040;2023-08-01T14:20:19;25.60;51.20
35680;DHT22;21803;53.586;10.040;2023-08-01T14:22:45;25.60;51.20
35680;DHT22;21803;53.586;10.040;2023-08-01T14:25:11;25.60;51.20
35680;DHT22;21803;53.586;10.040;2023-08-01T14:27:37;25.60;51.30
35680;DHT22;21803;53.586;10.040;2023-08-01T14:30:02;25.60;51.30
35680;DHT22;21803;53.586;10.040;2023-08-01T14:32:30;25.60;51.30
35680;DHT22;21803;53.586;10.040;2023-08-01T14:34:56;25.60;51.30
35680;DHT22;21803;53.586;10.040;2023-08-01T14:37:22;25.60;51.30
35680;DHT22;21803;53.586;10.040;2023-08-01T14:39:49;25.60;51.40
35680;DHT22;21803;53.586;10.040;2023-08-01T14:42:16;25.60;51.40
35680;DHT22;21803;53.586;10.040;2023-08-01T14:44:41;25.60;51.30
35680;DHT22;21803;53.586;10.040;2023-08-01T14:47:07;25.60;51.30
35680;DHT22;21803;53.586;10.040;2023-08-01T14:49:32;25.60;51.30
35680;DHT22;21803;53.586;10.040;2023-08-01T14:51:58;25.60;51.30
35680;DHT22;21803;53.586;10.040;2023-08-01T14:54:23;25.60;51.30
35680;DHT22;21803;53.586;10.040;2023-08-01T14:56:51;25.60;51.40
35680;DHT22;21803;53.586;10.040;2023-08-01T14:59:17;25.60;51.30
35680;DHT22;21803;53.586;10.040;2023-08-01T15:01:42;25.60;51.40
35680;DHT22;21803;53.586;10.040;2023-08-01T15:04:08;25.60;51.40
35680;DHT22;21803;53.586;10.040;2023-08-01T15:06:33;25.60;51.40
35680;DHT22;21803;53.586;10.040;2023-08-01T15:08:59;25.60;51.40
35680;DHT22;21803;53.586;10.040;2023-08-01T15:11:24;25.60;51.40
35680;DHT22;21803;53.586;10.040;2023-08-01T15:13:50;25.60;51.40
35680;DHT22;21803;53.586;10.040;2023-08-01T15:16:15;25.60;51.50
35680;DHT22;21803;53.586;10.040;2023-08-01T15:18:41;25.70;51.60
35680;DHT22;21803;53.586;10.040;2023-08-01T15:21:07;25.60;51.40
35680;DHT22;21803;53.586;10.040;2023-08-01T15:23:32;25.60;51.40
35680;DHT22;21803;53.586;10.040;2023-08-01T15:25:58;25.70;51.40
35680;DHT22;21803;53.586;10.040;2023-08-01T15:28:25;25.60;51.40
35680;DHT22;21803;53.586;10.040;2023-08-01T15:31:07;25.60;51.40
35680;DHT22;21803;53.586;10.040;2023-08-01T15:33:34;25.60;51.40
35680;DHT22;21803;53.586;10.040;2023-08-01T15:36:02;25.70;51.40
35680;DHT22;21803;53.586;10.040;2023-08-01T15:38:31;25.60;51.40
35680;DHT22;21803;53.586;10.040;2023-08-01T15:40:57;25.60;51.50
35680;DHT22;21803;53.586;10.040;2023-08-01T15:43:25;25.60;51.60
35680;DHT22;21803;53.586;10.040;2023-08-01T15:45:52;25.60;51.60
35680;DHT22;21803;53.586;10.040;2023-08-01T15:48:17;25.60;51.70
35680;DHT22;21803;53.586;10.040;2023-08-01T15:50:43;25.60;51.70
35680;DHT22;21803;53.586;10.040;2023-08-01T15:53:10;25.60;51.70
35680;DHT22;21803;53.586;10.040;2023-08-01T15:55:36;25.60;51.70
35680;DHT22;21803;53.586;10.040;2023-08-01T15:58:01;25.60;51.70
35680;DHT22;21803;53.586;10.040;2023-08-01T16:00:27;25.60;51.80
35680;DHT22;21803;53.586;10.040;2023-08-01T16:02:52;25.70;51.90
35680;DHT22;21803;53.586;10.040;2023-08-01T16:05:18;25.60;51.80
35680;DHT22;21803;53.586;10.040;2023-08-01T16:07:43;25.60;51.80
35680;DHT22;21803;53.586;10.040;2023-08-01T16:10:09;25.60;51.80
35680;DHT22;21803;53.586;10.040;2023-08-01T16:12:35;25.60;51.80
35680;DHT22;21803;53.586;10.040;2023-08-01T16:15:00;25.60;51.80
35680;DHT22;21803;53.586;10.040;2023-08-01T16:17:26;25.60;51.80
35680;DHT22;21803;53.586;10.040;2023-08-01T16:19:52;25.60;51.80
35680;DHT22;21803;53.586;10.040;2023-08-01T16:22:18;25.60;51.90
35680;DHT22;21803;53.586;10.040;2023-08-01T16:24:43;25.60;51.90
35680;DHT22;21803;53.586;10.040;2023-08-01T16:27:09;25.60;51.90
35680;DHT22;21803;53.586;10.040;2023-08-01T16:29:34;25.60;51.90
35680;DHT22;21803;53.586;10.040;2023-08-01T16:32:00;25.60;51.90
35680;DHT22;21803;53.586;10.040;2023-08-01T16:34:26;25.60;51.90
35680;DHT22;21803;53.586;10.040;2023-08-01T16:36:52;25.50;52.00
35680;DHT22;21803;53.586;10.040;2023-08-01T16:39:17;25.60;52.20
35680;DHT22;21803;53.586;10.040;2023-08-01T16:41:43;25.70;52.30
35680;DHT22;21803;53.586;10.040;2023-08-01T16:44:08;25.60;52.30
35680;DHT22;21803;53.586;10.040;2023-08-01T16:46:34;25.60;52.40
35680;DHT22;21803;53.586;10.040;2023-08-01T16:48:59;25.60;52.50
35680;DHT22;21803;53.586;10.040;2023-08-01T16:51:25;25.50;52.40
35680;DHT22;21803;53.586;10.040;2023-08-01T16:53:51;25.60;52.50
35680;DHT22;21803;53.586;10.040;2023-08-01T16:56:16;25.70;52.50
35680;DHT22;21803;53.586;10.040;2023-08-01T16:58:42;25.60;52.60
35680;DHT22;21803;53.586;10.040;2023-08-01T17:01:08;25.60;52.70
35680;DHT22;21803;53.586;10.040;2023-08-01T17:03:34;25.60;52.70
35680;DHT22;21803;53.586;10.040;2023-08-01T17:06:02;25.60;52.80
35680;DHT22;21803;53.586;10.040;2023-08-01T17:08:28;25.60;52.80
35680;DHT22;21803;53.586;10.040;2023-08-01T17:10:54;25.60;52.90
35680;DHT22;21803;53.586;10.040;2023-08-01T17:13:19;25.70;53.00
35680;DHT22;21803;53.586;10.040;2023-08-01T17:15:45;25.60;52.90
35680;DHT22;21803;53.586;10.040;2023-08-01T17:18:10;25.60;53.00
35680;DHT22;21803;53.586;10.040;2023-08-01T17:20:39;25.60;53.00
35680;DHT22;21803;53.586;10.040;2023-08-01T17:23:05;25.70;53.00
35680;DHT22;21803;53.586;10.040;2023-08-01T17:25:30;25.60;53.00
35680;DHT22;21803;53.586;10.040;2023-08-01T17:27:56;25.60;53.00
35680;DHT22;21803;53.586;10.040;2023-08-01T17:30:22;25.60;53.00
35680;DHT22;21803;53.586;10.040;2023-08-01T17:32:47;25.60;53.10
35680;DHT22;21803;53.586;10.040;2023-08-01T17:35:14;25.60;53.20
35680;DHT22;21803;53.586;10.040;2023-08-01T17:37:40;25.60;53.10
35680;DHT22;21803;53.586;10.040;2023-08-01T17:40:06;25.50;53.10
35680;DHT22;21803;53.586;10.040;2023-08-01T17:42:34;25.60;53.20
35680;DHT22;21803;53.586;10.040;2023-08-01T17:44:59;25.70;53.20
35680;DHT22;21803;53.586;10.040;2023-08-01T17:47:25;25.60;53.20
35680;DHT22;21803;53.586;10.040;2023-08-01T17:49:51;25.60;53.20
35680;DHT22;21803;53.586;10.040;2023-08-01T17:52:16;25.60;53.20
35680;DHT22;21803;53.586;10.040;2023-08-01T17:54:42;25.60;53.20
35680;DHT22;21803;53.586;10.040;2023-08-01T17:57:07;25.60;53.10
35680;DHT22;21803;53.586;10.040;2023-08-01T17:59:33;25.70;53.20
35680;DHT22;21803;53.586;10.040;2023-08-01T18:02:01;25.70;53.10
35680;DHT22;21803;53.586;10.040;2023-08-01T18:04:27;25.60;53.10
35680;DHT22;21803;53.586;10.040;2023-08-01T18:06:52;25.60;53.10
35680;DHT22;21803;53.586;10.040;2023-08-01T18:09:18;25.60;53.10
35680;DHT22;21803;53.586;10.040;2023-08-01T18:11:44;25.60;53.00
35680;DHT22;21803;53.586;10.040;2023-08-01T18:14:09;25.60;53.00
35680;DHT22;21803;53.586;10.040;2023-08-01T18:16:36;25.60;53.00
35680;DHT22;21803;53.586;10.040;2023-08-01T18:19:01;25.60;53.00
35680;DHT22;21803;53.586;10.040;2023-08-01T18:21:27;25.60;53.60
35680;DHT22;21803;53.586;10.040;2023-08-01T18:23:52;25.60;53.00
35680;DHT22;21803;53.586;10.040;2023-08-01T18:26:22;25.60;53.00
35680;DHT22;21803;53.586;10.040;2023-08-01T18:28:49;25.60;52.90
35680;DHT22;21803;53.586;10.040;2023-08-01T18:31:15;25.60;52.80
35680;DHT22;21803;53.586;10.040;2023-08-01T18:33:41;25.60;52.80
35680;DHT22;21803;53.586;10.040;2023-08-01T18:36:12;25.60;52.60
35680;DHT22;21803;53.586;10.040;2023-08-01T18:38:41;25.60;52.40
35680;DHT22;21803;53.586;10.040;2023-08-01T18:41:07;25.60;52.50
35680;DHT22;21803;53.586;10.040;2023-08-01T18:43:33;25.60;52.40
35680;DHT22;21803;53.586;10.040;2023-08-01T18:45:59;25.60;52.40
35680;DHT22;21803;53.586;10.040;2023-08-01T18:48:25;25.60;52.40
35680;DHT22;21803;53.586;10.040;2023-08-01T18:50:51;25.60;52.40
35680;DHT22;21803;53.586;10.040;2023-08-01T18:53:16;25.60;52.40
35680;DHT22;21803;53.586;10.040;2023-08-01T18:55:42;25.60;52.50
35680;DHT22;21803;53.586;10.040;2023-08-01T18:58:07;25.60;52.50
35680;DHT22;21803;53.586;10.040;2023-08-01T19:00:33;25.60;52.50
35680;DHT22;21803;53.586;10.040;2023-08-01T19:02:59;25.60;52.50
35680;DHT22;21803;53.586;10.040;2023-08-01T19:05:25;25.70;52.50
35680;DHT22;21803;53.586;10.040;2023-08-01T19:07:52;25.60;52.50
35680;DHT22;21803;53.586;10.040;2023-08-01T19:10:17;25.70;52.50
35680;DHT22;21803;53.586;10.040;2023-08-01T19:12:43;25.60;52.60
35680;DHT22;21803;53.586;10.040;2023-08-01T19:15:10;25.60;52.50
35680;DHT22;21803;53.586;10.040;2023-08-01T19:17:36;25.60;52.50
35680;DHT22;21803;53.586;10.040;2023-08-01T19:20:02;25.60;52.60
35680;DHT22;21803;53.586;10.040;2023-08-01T19:22:28;25.60;52.60
35680;DHT22;21803;53.586;10.040;2023-08-01T19:24:54;25.60;52.60